Decoded Metar for KGEZ (SHELBYVILLE in IN, USA) (IATA:GEZ) | Meteo·Mobile Aviation Weather
aviador You're here:

KGEZ Decoded Metar

SHELBYVILLE in IN, USA
Report Time2018-09-20 07:53:00
UTC Time2018-09-20 08:49:26
Flight Rules vfr VFR
Wind100° at 04 kt
W.Decomp.*RWY 09: 3.9 kt HW 1.0 kt RCW
RWY 19: 0.3 kt HW 4 kt LCW
W.Rank100° ranks 28
Current wind is below 100° avg. (6.3)
Visibility9999 m
Phenomena:N/A
Clouds:N/A
Expected CloudBase > 800 ft AGL from Temp-Dew spread
CeilingNone
Temp21°C (ISA +8)
Dew Point19°C (88% RH)
QNH1016 hPa
Density Alt1,883 ft
Elevation804 ft
Report Wrong Elevation
Raw Report
KGEZ 200753Z AUTO 10004KT 8SM CLR 21/19 A3001 RMK AO2 SLP156
T02060189=

Extra information for KGEZ:More info

Metar Taf Metar & Taf Last 4 Metars F.Rules Stats Wind Profile Meteogram Temp Stats Airport Information Weather charts Add Link Nearby VenuesMetar ALERT Operation Metar Decoded Social comments

AIRNAV info for KGEZ